Time;durP1;ratioP1;P1;durP2;ratioP2;P2;SDS_P1;SDS_P2;PMS_P1;PMS_P2;Temp;Humidity;BMP_temperature;BMP_pressure;BME280_temperature;BME280_humidity;BME280_pressure;Samples;Min_cycle;Max_cycle;Signal;HPM_P1;HPM_P2
2021/11/23 00:02:12;;;;;;;47.80;44.90;;;;;;;;;;4972442;28;20078;-71
2021/11/23 00:04:38;;;;;;;47.95;44.85;;;;;;;;;;4970447;28;20054;-71
2021/11/23 00:07:04;;;;;;;50.30;47.25;;;;;;;;;;4972685;28;20037;-71
2021/11/23 00:09:30;;;;;;;52.15;48.97;;;;;;;;;;4971275;28;20403;-71
2021/11/23 00:11:56;;;;;;;50.83;47.55;;;;;;;;;;4975918;28;20085;-71
2021/11/23 00:14:22;;;;;;;53.70;50.47;;;;;;;;;;4958276;28;20057;-71
2021/11/23 00:16:48;;;;;;;52.53;49.70;;;;;;;;;;4969520;28;20049;-71
2021/11/23 00:19:14;;;;;;;52.15;49.45;;;;;;;;;;4970516;28;20059;-71
2021/11/23 00:21:41;;;;;;;50.80;47.55;;;;;;;;;;4971710;28;20540;-71
2021/11/23 00:24:08;;;;;;;52.90;49.60;;;;;;;;;;4972181;28;20041;-71
2021/11/23 00:26:34;;;;;;;56.08;52.50;;;;;;;;;;4966983;28;20030;-71
2021/11/23 00:29:00;;;;;;;55.78;51.97;;;;;;;;;;4964153;28;20045;-71
2021/11/23 00:31:27;;;;;;;52.78;49.85;;;;;;;;;;4952716;28;20034;-71
2021/11/23 00:33:53;;;;;;;53.38;50.55;;;;;;;;;;4962146;28;20175;-72
2021/11/23 00:36:19;;;;;;;54.35;50.90;;;;;;;;;;4971567;28;20023;-71
2021/11/23 00:38:45;;;;;;;51.28;48.30;;;;;;;;;;4967135;28;20041;-72
2021/11/23 00:41:17;;;;;;;52.90;49.55;;;;;;;;;;4971299;28;20034;-71
2021/11/23 00:43:43;;;;;;;519.42;435.25;;;;;;;;;;4972365;28;23427;-72
2021/11/23 00:46:09;;;;;;;56.95;53.03;;;;;;;;;;4957315;28;20562;-72
2021/11/23 00:48:35;;;;;;;53.58;50.15;;;;;;;;;;4972343;28;20290;-72
2021/11/23 00:51:01;;;;;;;48.90;46.20;;;;;;;;;;4949161;28;20124;-71
2021/11/23 00:53:27;;;;;;;50.10;47.17;;;;;;;;;;4965493;28;20050;-71
2021/11/23 00:55:53;;;;;;;275.77;225.75;;;;;;;;;;4957001;28;20120;-72
2021/11/23 00:58:19;;;;;;;188.23;169.88;;;;;;;;;;4948719;28;20110;-72
2021/11/23 01:00:45;;;;;;;54.97;51.55;;;;;;;;;;4955546;28;20081;-72
2021/11/23 01:03:13;;;;;;;53.50;50.42;;;;;;;;;;4953955;28;20031;-71
2021/11/23 01:05:39;;;;;;;58.03;54.75;;;;;;;;;;4952589;28;20023;-71
2021/11/23 01:08:05;;;;;;;54.65;51.10;;;;;;;;;;4959220;28;20420;-71
2021/11/23 01:10:31;;;;;;;55.47;52.38;;;;;;;;;;4972071;28;20442;-71
2021/11/23 01:12:57;;;;;;;229.70;192.40;;;;;;;;;;4953273;28;20042;-72
2021/11/23 01:15:23;;;;;;;55.28;52.50;;;;;;;;;;4955233;28;20402;-71
2021/11/23 01:17:50;;;;;;;58.75;55.42;;;;;;;;;;4970529;28;20031;-71
2021/11/23 01:20:16;;;;;;;61.13;57.80;;;;;;;;;;4973117;28;20043;-71
2021/11/23 01:22:44;;;;;;;63.60;59.38;;;;;;;;;;4972003;28;20109;-71
2021/11/23 01:25:10;;;;;;;66.65;62.83;;;;;;;;;;4967438;28;20070;-71
2021/11/23 01:27:36;;;;;;;63.33;60.13;;;;;;;;;;4966972;28;20551;-71
2021/11/23 01:30:04;;;;;;;68.00;63.30;;;;;;;;;;4978656;28;20030;-71
2021/11/23 01:32:30;;;;;;;139.30;119.50;;;;;;;;;;4955113;28;20034;-72
2021/11/23 01:34:56;;;;;;;64.57;61.10;;;;;;;;;;4971555;28;20029;-72
2021/11/23 01:37:23;;;;;;;64.68;61.42;;;;;;;;;;4954446;28;20507;-72
2021/11/23 01:39:49;;;;;;;62.13;58.83;;;;;;;;;;4952112;28;20036;-71
2021/11/23 01:42:15;;;;;;;64.43;60.55;;;;;;;;;;4967094;28;20038;-71
2021/11/23 01:44:41;;;;;;;65.22;61.60;;;;;;;;;;4972794;28;20031;-71
2021/11/23 01:47:07;;;;;;;67.68;63.78;;;;;;;;;;4969112;28;20039;-71
2021/11/23 01:49:33;;;;;;;68.18;64.05;;;;;;;;;;4971449;28;20121;-71
2021/11/23 01:51:59;;;;;;;66.32;63.00;;;;;;;;;;4970748;28;20027;-71
2021/11/23 01:54:26;;;;;;;63.78;60.60;;;;;;;;;;4970507;28;20101;-71
2021/11/23 01:56:52;;;;;;;63.00;59.78;;;;;;;;;;4969127;28;20031;-71
2021/11/23 01:59:18;;;;;;;63.40;59.40;;;;;;;;;;4967450;28;20447;-71
2021/11/23 02:01:44;;;;;;;63.83;60.35;;;;;;;;;;4969307;28;20022;-71
2021/11/23 02:04:10;;;;;;;60.85;57.53;;;;;;;;;;4969925;28;20030;-71
2021/11/23 02:06:36;;;;;;;61.88;58.53;;;;;;;;;;4970302;28;20034;-71
2021/11/23 02:09:03;;;;;;;54.78;51.80;;;;;;;;;;4968276;28;20109;-71
2021/11/23 02:11:29;;;;;;;54.13;51.05;;;;;;;;;;4970295;28;20035;-71
2021/11/23 02:13:55;;;;;;;59.53;55.60;;;;;;;;;;4967679;28;20081;-71
2021/11/23 02:16:22;;;;;;;59.15;55.20;;;;;;;;;;4967872;28;20430;-71
2021/11/23 02:18:49;;;;;;;57.13;53.50;;;;;;;;;;4947963;28;20121;-71
2021/11/23 02:21:15;;;;;;;56.42;53.47;;;;;;;;;;4969183;28;20070;-71
2021/11/23 02:23:42;;;;;;;58.63;55.53;;;;;;;;;;4953305;28;20030;-71
2021/11/23 02:26:08;;;;;;;59.17;55.50;;;;;;;;;;4967259;28;20027;-71
2021/11/23 02:28:34;;;;;;;53.92;50.60;;;;;;;;;;4964247;28;20407;-71
2021/11/23 02:31:00;;;;;;;52.50;49.75;;;;;;;;;;4967704;28;20027;-71
2021/11/23 02:33:28;;;;;;;57.65;54.63;;;;;;;;;;4965397;28;20030;-71
2021/11/23 02:35:57;;;;;;;57.58;54.53;;;;;;;;;;4967009;28;20034;-71
2021/11/23 02:38:25;;;;;;;58.22;54.92;;;;;;;;;;4955070;28;20058;-71
2021/11/23 02:40:51;;;;;;;57.08;54.10;;;;;;;;;;4958085;28;20069;-71
2021/11/23 02:43:17;;;;;;;52.95;50.17;;;;;;;;;;4965257;28;20041;-71
2021/11/23 02:45:44;;;;;;;56.63;53.80;;;;;;;;;;4967753;28;20059;-71
2021/11/23 02:48:10;;;;;;;49.33;46.83;;;;;;;;;;4963113;28;20538;-71
2021/11/23 02:50:37;;;;;;;47.92;45.30;;;;;;;;;;4967064;28;20513;-71
2021/11/23 02:53:03;;;;;;;52.92;49.83;;;;;;;;;;4967324;28;20368;-71
2021/11/23 02:55:33;;;;;;;54.03;50.97;;;;;;;;;;4957478;28;20038;-71
2021/11/23 02:57:59;;;;;;;49.75;47.22;;;;;;;;;;4963340;28;20402;-71
2021/11/23 03:00:26;;;;;;;50.30;47.70;;;;;;;;;;4970297;28;20068;-71
2021/11/23 03:02:53;;;;;;;50.10;47.45;;;;;;;;;;4965179;28;20106;-71
2021/11/23 03:05:19;;;;;;;51.42;48.63;;;;;;;;;;4964630;28;20096;-71
2021/11/23 03:07:46;;;;;;;47.13;44.90;;;;;;;;;;4941532;28;20034;-71
2021/11/23 03:10:12;;;;;;;55.70;52.53;;;;;;;;;;4970945;28;20132;-71
2021/11/23 03:12:39;;;;;;;53.08;50.13;;;;;;;;;;4965435;28;20027;-72
2021/11/23 03:15:06;;;;;;;55.50;52.60;;;;;;;;;;4963064;28;20487;-71
2021/11/23 03:17:32;;;;;;;52.30;49.58;;;;;;;;;;4951829;28;20060;-71
2021/11/23 03:19:58;;;;;;;54.97;51.65;;;;;;;;;;4968614;28;20015;-71
2021/11/23 03:22:24;;;;;;;47.38;44.35;;;;;;;;;;4968917;28;20034;-71
2021/11/23 03:24:51;;;;;;;50.97;47.47;;;;;;;;;;4951890;28;20558;-71
2021/11/23 03:27:17;;;;;;;57.55;54.50;;;;;;;;;;4966077;28;20080;-71
2021/11/23 03:29:44;;;;;;;57.70;54.60;;;;;;;;;;4967778;28;20558;-71
2021/11/23 03:32:10;;;;;;;58.38;54.97;;;;;;;;;;4952124;28;20054;-71
2021/11/23 03:34:38;;;;;;;60.45;57.08;;;;;;;;;;4971880;28;20052;-71
2021/11/23 03:37:05;;;;;;;53.88;51.03;;;;;;;;;;4962802;28;20027;-71
2021/11/23 03:39:32;;;;;;;52.47;49.25;;;;;;;;;;4967451;28;20041;-71
2021/11/23 03:41:58;;;;;;;56.33;53.22;;;;;;;;;;4952147;28;20081;-71
2021/11/23 03:44:24;;;;;;;56.15;53.00;;;;;;;;;;4960217;28;20027;-71
2021/11/23 03:46:50;;;;;;;56.08;53.00;;;;;;;;;;4970887;28;20049;-71
2021/11/23 03:49:16;;;;;;;50.67;47.85;;;;;;;;;;4966723;28;20495;-71
2021/11/23 03:51:42;;;;;;;48.03;45.35;;;;;;;;;;4971448;28;20049;-71
2021/11/23 03:54:08;;;;;;;55.20;52.15;;;;;;;;;;4970792;28;20084;-71
2021/11/23 03:56:35;;;;;;;56.35;52.70;;;;;;;;;;4970460;28;20116;-71
2021/11/23 03:59:01;;;;;;;56.10;53.10;;;;;;;;;;4952029;28;20041;-70
2021/11/23 04:01:27;;;;;;;52.30;49.42;;;;;;;;;;4972733;28;20131;-71
2021/11/23 04:03:53;;;;;;;52.22;48.78;;;;;;;;;;4972071;28;20057;-71
2021/11/23 04:06:19;;;;;;;51.50;48.05;;;;;;;;;;4954822;28;20049;-71
2021/11/23 04:08:45;;;;;;;49.17;46.15;;;;;;;;;;4954317;28;20023;-71
2021/11/23 04:11:11;;;;;;;56.70;53.60;;;;;;;;;;4971400;28;20338;-71
2021/11/23 04:13:37;;;;;;;57.05;53.45;;;;;;;;;;4970515;28;20190;-71
2021/11/23 04:16:04;;;;;;;55.60;52.63;;;;;;;;;;4968885;28;20035;-71
2021/11/23 04:18:30;;;;;;;51.10;48.63;;;;;;;;;;4969728;28;20076;-71
2021/11/23 04:20:56;;;;;;;50.28;47.25;;;;;;;;;;4971817;28;20503;-71
2021/11/23 04:23:22;;;;;;;53.75;50.92;;;;;;;;;;4969169;28;20056;-71
2021/11/23 04:25:48;;;;;;;52.20;49.13;;;;;;;;;;4971792;28;20041;-71
2021/11/23 04:28:14;;;;;;;54.28;51.38;;;;;;;;;;4969802;28;20034;-71
2021/11/23 04:30:40;;;;;;;59.17;54.78;;;;;;;;;;4970601;28;20035;-71
2021/11/23 04:33:06;;;;;;;55.05;51.83;;;;;;;;;;4967183;28;20044;-71
2021/11/23 04:35:32;;;;;;;50.95;48.35;;;;;;;;;;4968059;28;20048;-71
2021/11/23 04:37:59;;;;;;;49.80;46.85;;;;;;;;;;4970173;28;20465;-71
2021/11/23 04:40:25;;;;;;;55.95;52.75;;;;;;;;;;4972666;28;20125;-71
2021/11/23 04:42:51;;;;;;;55.20;51.38;;;;;;;;;;4956071;28;20073;-71
2021/11/23 04:45:17;;;;;;;56.38;53.08;;;;;;;;;;4972826;28;20045;-71
2021/11/23 04:47:43;;;;;;;53.15;50.05;;;;;;;;;;4954655;28;20057;-71
2021/11/23 04:50:10;;;;;;;49.38;46.45;;;;;;;;;;4971089;28;20045;-71
2021/11/23 04:52:37;;;;;;;55.40;51.85;;;;;;;;;;4969759;28;20040;-71
2021/11/23 04:55:03;;;;;;;57.15;53.45;;;;;;;;;;4969456;28;20050;-71
2021/11/23 04:57:29;;;;;;;57.75;53.70;;;;;;;;;;4972705;28;20109;-72
2021/11/23 04:59:56;;;;;;;54.08;50.88;;;;;;;;;;4968471;28;20019;-71
2021/11/23 05:02:22;;;;;;;57.40;53.08;;;;;;;;;;4970585;28;20073;-71
2021/11/23 05:04:48;;;;;;;56.15;52.38;;;;;;;;;;4969517;28;20023;-71
2021/11/23 05:07:14;;;;;;;54.78;51.03;;;;;;;;;;4972273;28;20045;-72
2021/11/23 05:09:40;;;;;;;61.35;57.78;;;;;;;;;;4966480;28;20397;-71
2021/11/23 05:12:06;;;;;;;59.35;55.92;;;;;;;;;;4971934;28;20423;-71
2021/11/23 05:14:32;;;;;;;54.00;51.03;;;;;;;;;;4960645;28;20051;-71
2021/11/23 05:16:58;;;;;;;54.33;50.72;;;;;;;;;;4949356;28;20030;-71
2021/11/23 05:19:25;;;;;;;53.63;49.63;;;;;;;;;;4962535;28;20024;-72
2021/11/23 05:21:51;;;;;;;55.92;52.55;;;;;;;;;;4971157;28;20027;-71
2021/11/23 05:24:17;;;;;;;57.42;54.08;;;;;;;;;;4958735;28;20477;-71
2021/11/23 05:26:43;;;;;;;54.65;49.95;;;;;;;;;;4963753;28;20266;-71
2021/11/23 05:29:13;;;;;;;52.40;48.65;;;;;;;;;;4966059;28;20031;-72
2021/11/23 05:31:40;;;;;;;60.85;55.03;;;;;;;;;;4963319;28;20039;-71
2021/11/23 05:34:06;;;;;;;63.97;58.63;;;;;;;;;;4952522;28;20202;-71
2021/11/23 05:36:32;;;;;;;73.50;65.97;;;;;;;;;;4954030;28;20452;-72
2021/11/23 05:38:58;;;;;;;61.42;55.95;;;;;;;;;;4944887;28;20409;-72
2021/11/23 05:41:24;;;;;;;54.00;50.40;;;;;;;;;;4961934;28;20511;-71
2021/11/23 05:43:51;;;;;;;52.75;49.17;;;;;;;;;;4970967;28;20023;-71
2021/11/23 05:46:17;;;;;;;49.10;46.00;;;;;;;;;;4965481;28;20529;-71
2021/11/23 05:48:43;;;;;;;55.97;52.38;;;;;;;;;;4966044;28;20035;-71
2021/11/23 05:51:09;;;;;;;52.53;49.22;;;;;;;;;;4970771;28;20054;-72
2021/11/23 05:53:36;;;;;;;53.75;50.47;;;;;;;;;;4971373;28;20030;-72
2021/11/23 05:56:03;;;;;;;48.80;45.78;;;;;;;;;;4971633;28;20073;-72
2021/11/23 05:58:29;;;;;;;46.40;43.70;;;;;;;;;;4965164;28;20045;-71
2021/11/23 06:00:56;;;;;;;54.50;51.33;;;;;;;;;;4970766;28;20365;-72
2021/11/23 06:03:22;;;;;;;53.30;49.65;;;;;;;;;;4967928;28;20031;-72
2021/11/23 06:05:48;;;;;;;54.60;51.40;;;;;;;;;;4968225;28;20163;-72
2021/11/23 06:08:14;;;;;;;53.75;49.88;;;;;;;;;;4968266;28;20097;-72
2021/11/23 06:10:40;;;;;;;50.95;47.38;;;;;;;;;;4971256;28;20105;-71
2021/11/23 06:13:08;;;;;;;58.28;54.40;;;;;;;;;;4949272;28;20050;-72
2021/11/23 06:15:34;;;;;;;53.72;50.58;;;;;;;;;;4964771;28;20129;-71
2021/11/23 06:18:03;;;;;;;56.00;52.47;;;;;;;;;;4953270;28;20092;-71
2021/11/23 06:20:32;;;;;;;68.15;61.90;;;;;;;;;;4954000;28;20022;-71
2021/11/23 06:23:00;;;;;;;54.75;50.92;;;;;;;;;;4968080;28;20787;-71
2021/11/23 06:25:26;;;;;;;55.22;51.35;;;;;;;;;;4966959;28;20041;-71
2021/11/23 06:27:52;;;;;;;51.28;47.72;;;;;;;;;;4965954;28;20027;-71
2021/11/23 06:30:18;;;;;;;58.80;54.50;;;;;;;;;;4969921;28;20049;-72
2021/11/23 06:32:44;;;;;;;58.65;55.13;;;;;;;;;;4968328;28;20038;-71
2021/11/23 06:35:11;;;;;;;55.83;52.58;;;;;;;;;;4968692;28;20034;-71
2021/11/23 06:37:37;;;;;;;52.90;49.08;;;;;;;;;;4968201;28;20035;-71
2021/11/23 06:40:05;;;;;;;52.03;48.75;;;;;;;;;;4968296;28;20037;-72
2021/11/23 06:42:31;;;;;;;57.35;53.85;;;;;;;;;;4951729;28;20038;-72
2021/11/23 06:44:57;;;;;;;54.13;50.42;;;;;;;;;;4967742;28;20065;-72
2021/11/23 06:47:23;;;;;;;54.55;50.70;;;;;;;;;;4968444;28;20037;-71
2021/11/23 06:49:51;;;;;;;46.25;42.72;;;;;;;;;;4971218;28;20041;-72
2021/11/23 06:52:18;;;;;;;48.17;44.90;;;;;;;;;;4952940;28;20064;-72
2021/11/23 06:54:44;;;;;;;47.55;44.00;;;;;;;;;;4971666;28;20026;-71
2021/11/23 06:57:10;;;;;;;47.33;43.83;;;;;;;;;;4969257;28;20034;-71
2021/11/23 06:59:37;;;;;;;49.08;45.00;;;;;;;;;;4968803;28;20035;-72
2021/11/23 07:02:03;;;;;;;48.30;44.72;;;;;;;;;;4970506;28;20026;-71
2021/11/23 07:06:57;;;;;;;48.88;45.25;;;;;;;;;;4983886;28;20054;-73
2021/11/23 07:09:23;;;;;;;53.47;49.70;;;;;;;;;;4989365;28;20037;-73
2021/11/23 07:11:49;;;;;;;50.17;46.60;;;;;;;;;;4998477;28;20076;-74
2021/11/23 07:14:16;;;;;;;52.75;49.25;;;;;;;;;;4972649;28;20025;-73
2021/11/23 07:16:42;;;;;;;60.80;56.38;;;;;;;;;;4990012;28;20073;-73
2021/11/23 07:19:08;;;;;;;55.80;51.83;;;;;;;;;;4992195;28;20029;-73
2021/11/23 07:21:35;;;;;;;54.28;50.35;;;;;;;;;;4971818;28;20023;-74
2021/11/23 07:24:01;;;;;;;54.63;50.08;;;;;;;;;;4972160;28;20018;-73
2021/11/23 07:26:28;;;;;;;50.22;46.28;;;;;;;;;;4999679;28;20634;-74
2021/11/23 07:28:54;;;;;;;51.00;46.97;;;;;;;;;;4993467;28;20041;-74
2021/11/23 07:31:21;;;;;;;46.97;43.63;;;;;;;;;;5004716;28;20026;-74
2021/11/23 07:33:47;;;;;;;50.10;46.22;;;;;;;;;;4983960;28;20044;-73
2021/11/23 07:36:13;;;;;;;48.70;44.72;;;;;;;;;;4997332;28;20033;-74
2021/11/23 07:38:39;;;;;;;48.00;44.72;;;;;;;;;;4994159;28;20049;-74
2021/11/23 07:41:05;;;;;;;47.80;44.15;;;;;;;;;;4995353;23;20051;-72
2021/11/23 07:43:31;;;;;;;49.75;45.67;;;;;;;;;;4968555;28;20034;-72
2021/11/23 07:45:58;;;;;;;45.78;42.35;;;;;;;;;;5078791;23;20066;-73
2021/11/23 07:48:24;;;;;;;45.60;42.25;;;;;;;;;;4997174;28;20412;-74
2021/11/23 07:50:50;;;;;;;43.90;40.75;;;;;;;;;;4989920;28;20602;-73
2021/11/23 07:53:16;;;;;;;45.83;42.13;;;;;;;;;;5013050;28;20029;-73
2021/11/23 07:55:42;;;;;;;48.78;45.15;;;;;;;;;;4993155;28;20568;-73
2021/11/23 07:58:08;;;;;;;43.60;39.88;;;;;;;;;;4994643;28;20061;-74
2021/11/23 08:00:34;;;;;;;45.08;41.58;;;;;;;;;;5003259;28;20029;-74
2021/11/23 08:03:00;;;;;;;44.28;40.90;;;;;;;;;;4995429;28;20034;-73
2021/11/23 08:05:26;;;;;;;44.92;41.95;;;;;;;;;;5001530;28;20037;-73
2021/11/23 08:07:52;;;;;;;44.13;40.70;;;;;;;;;;4996992;28;20048;-73
2021/11/23 08:10:19;;;;;;;41.63;37.97;;;;;;;;;;5001865;28;20370;-74
2021/11/23 08:12:45;;;;;;;41.38;38.17;;;;;;;;;;4990495;28;20030;-74
2021/11/23 08:15:11;;;;;;;37.65;34.92;;;;;;;;;;4999302;28;20034;-74
2021/11/23 08:17:37;;;;;;;40.17;36.45;;;;;;;;;;4975688;28;20030;-73
2021/11/23 08:20:05;;;;;;;38.33;35.47;;;;;;;;;;4991296;28;20110;-74
2021/11/23 08:22:31;;;;;;;37.20;34.40;;;;;;;;;;4993903;28;20451;-74
2021/11/23 08:24:57;;;;;;;38.28;34.90;;;;;;;;;;4973397;28;20122;-74
2021/11/23 08:27:23;;;;;;;39.75;36.00;;;;;;;;;;4993448;28;20243;-74
2021/11/23 08:29:49;;;;;;;38.47;35.38;;;;;;;;;;4988675;28;20124;-74
2021/11/23 08:32:15;;;;;;;41.00;37.63;;;;;;;;;;4998680;28;20481;-74
2021/11/23 08:34:41;;;;;;;41.17;37.30;;;;;;;;;;4997366;28;20084;-74
2021/11/23 08:37:07;;;;;;;39.22;35.90;;;;;;;;;;5002915;28;20026;-74
2021/11/23 08:39:33;;;;;;;41.75;37.67;;;;;;;;;;4992909;28;20053;-74
2021/11/23 08:42:00;;;;;;;39.63;36.22;;;;;;;;;;4997189;28;20068;-74
2021/11/23 08:44:26;;;;;;;37.50;34.22;;;;;;;;;;4994431;28;20026;-74
2021/11/23 08:46:52;;;;;;;38.17;34.80;;;;;;;;;;4981391;28;20065;-75
2021/11/23 08:49:18;;;;;;;36.72;33.95;;;;;;;;;;4972298;28;20034;-74
2021/11/23 08:51:44;;;;;;;37.78;34.97;;;;;;;;;;5005875;28;20026;-76
2021/11/23 08:54:11;;;;;;;36.55;33.72;;;;;;;;;;4981041;28;20029;-75
2021/11/23 08:56:38;;;;;;;38.35;35.40;;;;;;;;;;4980271;28;20045;-75
2021/11/23 08:59:10;;;;;;;37.67;34.20;;;;;;;;;;5000869;28;20025;-75
2021/11/23 09:01:36;;;;;;;83.05;73.70;;;;;;;;;;5010586;28;20021;-75
2021/11/23 09:04:04;;;;;;;34.60;31.55;;;;;;;;;;4984557;28;20169;-75
2021/11/23 09:06:30;;;;;;;34.05;31.15;;;;;;;;;;4995192;28;20477;-75
2021/11/23 09:08:58;;;;;;;32.75;29.83;;;;;;;;;;4990180;28;20037;-75
2021/11/23 09:11:24;;;;;;;34.38;31.77;;;;;;;;;;5001315;28;20050;-75
2021/11/23 09:13:53;;;;;;;33.83;31.05;;;;;;;;;;4998564;28;20428;-76
2021/11/23 09:16:19;;;;;;;34.42;31.70;;;;;;;;;;5000987;28;20072;-75
2021/11/23 09:18:45;;;;;;;33.13;30.60;;;;;;;;;;4989662;28;20029;-75
2021/11/23 09:21:12;;;;;;;36.78;33.58;;;;;;;;;;5003285;28;20026;-76
2021/11/23 09:23:38;;;;;;;35.35;32.45;;;;;;;;;;4975758;28;20049;-75
2021/11/23 09:26:04;;;;;;;32.78;30.05;;;;;;;;;;4972850;28;20061;-75
2021/11/23 09:28:30;;;;;;;36.67;32.45;;;;;;;;;;4977747;28;20022;-75
2021/11/23 09:30:56;;;;;;;32.92;29.48;;;;;;;;;;5003371;28;20026;-75
2021/11/23 09:33:22;;;;;;;33.08;29.80;;;;;;;;;;5002092;28;20160;-75
2021/11/23 09:35:48;;;;;;;34.65;31.88;;;;;;;;;;4994690;28;20026;-75
2021/11/23 09:38:15;;;;;;;34.08;31.13;;;;;;;;;;4993246;28;20038;-75
2021/11/23 09:40:41;;;;;;;33.22;30.00;;;;;;;;;;5007262;28;20050;-75
2021/11/23 09:43:07;;;;;;;34.50;31.50;;;;;;;;;;4992450;28;20038;-75
2021/11/23 09:45:34;;;;;;;32.20;29.35;;;;;;;;;;4998633;28;20026;-75
2021/11/23 09:48:04;;;;;;;33.47;30.83;;;;;;;;;;4995883;28;20045;-75
2021/11/23 09:50:30;;;;;;;32.08;29.17;;;;;;;;;;4992474;28;20358;-75
2021/11/23 09:52:56;;;;;;;35.47;32.67;;;;;;;;;;4995926;28;20041;-75
2021/11/23 09:55:22;;;;;;;35.85;32.25;;;;;;;;;;4997295;28;20022;-76
2021/11/23 09:57:48;;;;;;;37.47;34.40;;;;;;;;;;4998367;28;20052;-75
2021/11/23 10:00:25;;;;;;;35.28;32.15;;;;;;;;;;4991844;28;20018;-75
2021/11/23 10:02:52;;;;;;;34.03;31.35;;;;;;;;;;4973069;28;20022;-75
2021/11/23 10:05:19;;;;;;;34.10;31.50;;;;;;;;;;4993544;28;20030;-75
2021/11/23 10:07:46;;;;;;;34.38;31.23;;;;;;;;;;4993653;28;20018;-75
2021/11/23 10:10:18;;;;;;;34.50;30.83;;;;;;;;;;4974069;28;20077;-76
2021/11/23 10:12:52;;;;;;;35.78;32.17;;;;;;;;;;4998175;28;20029;-75
2021/11/23 10:15:24;;;;;;;35.80;32.65;;;;;;;;;;4981291;28;20122;-75
2021/11/23 10:17:51;;;;;;;36.22;32.75;;;;;;;;;;4987390;28;20030;-75
2021/11/23 10:20:24;;;;;;;33.80;30.98;;;;;;;;;;4990298;28;20077;-76
2021/11/23 10:22:50;;;;;;;32.55;29.02;;;;;;;;;;4985518;28;20026;-75
2021/11/23 10:25:16;;;;;;;33.17;30.05;;;;;;;;;;4995884;28;20070;-76
2021/11/23 10:27:43;;;;;;;33.10;30.38;;;;;;;;;;4967797;28;20026;-76
2021/11/23 10:30:10;;;;;;;33.80;30.98;;;;;;;;;;4991246;28;20026;-76
2021/11/23 10:32:44;;;;;;;33.47;30.52;;;;;;;;;;4997788;28;20033;-76
2021/11/23 10:35:28;;;;;;;34.15;30.92;;;;;;;;;;4994528;28;20116;-76
2021/11/23 10:37:55;;;;;;;34.10;31.17;;;;;;;;;;4973749;28;20053;-76
2021/11/23 10:40:24;;;;;;;32.60;29.90;;;;;;;;;;4994699;28;20030;-76
2021/11/23 10:42:52;;;;;;;33.13;30.08;;;;;;;;;;4990678;28;20025;-76
2021/11/23 10:45:18;;;;;;;33.15;30.08;;;;;;;;;;4972247;28;20459;-76
2021/11/23 10:47:47;;;;;;;32.90;30.15;;;;;;;;;;4989300;28;20037;-76
2021/11/23 10:50:14;;;;;;;33.55;30.58;;;;;;;;;;4992803;28;20030;-76
2021/11/23 10:52:47;;;;;;;31.08;28.98;;;;;;;;;;4998193;28;20038;-76
2021/11/23 10:55:13;;;;;;;34.15;31.50;;;;;;;;;;4980005;28;20034;-76
2021/11/23 10:57:41;;;;;;;33.40;30.42;;;;;;;;;;4969916;28;20038;-77
2021/11/23 11:00:08;;;;;;;34.33;31.15;;;;;;;;;;4977128;28;20022;-76
2021/11/23 11:02:37;;;;;;;35.88;32.33;;;;;;;;;;4994398;28;20058;-76
2021/11/23 11:05:03;;;;;;;32.30;29.50;;;;;;;;;;4993605;28;20046;-77
2021/11/23 11:07:30;;;;;;;33.97;30.85;;;;;;;;;;4989445;28;20542;-76
2021/11/23 11:09:57;;;;;;;34.35;31.58;;;;;;;;;;4994599;28;20030;-76
2021/11/23 11:12:23;;;;;;;33.70;31.05;;;;;;;;;;4990835;28;20046;-75
2021/11/23 11:14:49;;;;;;;34.45;31.73;;;;;;;;;;4990601;28;20038;-75
2021/11/23 11:17:15;;;;;;;34.65;31.88;;;;;;;;;;4995226;28;20037;-77
2021/11/23 11:19:46;;;;;;;32.58;29.58;;;;;;;;;;4998117;28;20018;-77
2021/11/23 11:22:13;;;;;;;35.05;31.77;;;;;;;;;;4999868;28;20034;-77
2021/11/23 11:24:44;;;;;;;32.30;29.17;;;;;;;;;;4988956;28;20078;-76
2021/11/23 11:27:25;;;;;;;32.63;29.60;;;;;;;;;;4985992;28;20030;-77
2021/11/23 11:29:52;;;;;;;32.90;30.40;;;;;;;;;;4970499;28;20401;-76
2021/11/23 11:32:34;;;;;;;32.40;29.92;;;;;;;;;;4989595;28;20432;-78
2021/11/23 11:35:00;;;;;;;;;;;;;;;;;;5009960;28;20053;-77
2021/11/23 11:37:30;;;;;;;31.55;29.38;;;;;;;;;;4981412;28;20420;-77
2021/11/23 11:40:03;;;;;;;34.63;31.98;;;;;;;;;;4992972;28;20060;-77
2021/11/23 11:42:29;;;;;;;35.53;32.88;;;;;;;;;;4993853;28;20493;-77
2021/11/23 11:44:55;;;;;;;35.05;31.80;;;;;;;;;;5005115;28;20049;-77
2021/11/23 11:47:32;;;;;;;36.78;33.83;;;;;;;;;;5006150;28;20050;-77
2021/11/23 11:50:02;;;;;;;36.38;33.03;;;;;;;;;;4973550;28;20022;-77
2021/11/23 11:52:29;;;;;;;32.67;30.27;;;;;;;;;;4997822;28;20520;-77
2021/11/23 11:55:15;;;;;;;33.10;30.55;;;;;;;;;;5006175;28;20029;-77
2021/11/23 11:57:43;;;;;;;36.28;33.30;;;;;;;;;;4998420;28;20496;-77
2021/11/23 12:00:26;;;;;;;38.97;35.33;;;;;;;;;;4998932;28;20396;-77
2021/11/23 12:02:54;;;;;;;39.03;35.20;;;;;;;;;;4991911;28;20065;-77
2021/11/23 12:05:20;;;;;;;32.58;30.27;;;;;;;;;;5001520;28;20405;-77
2021/11/23 12:07:47;;;;;;;35.65;32.42;;;;;;;;;;4996293;28;20256;-76
2021/11/23 12:10:17;;;;;;;34.47;31.45;;;;;;;;;;5002090;28;20117;-76
2021/11/23 12:12:49;;;;;;;34.35;30.70;;;;;;;;;;4994429;28;20030;-76
2021/11/23 12:15:18;;;;;;;31.02;29.00;;;;;;;;;;4998144;28;20058;-76
2021/11/23 12:18:03;;;;;;;31.30;28.98;;;;;;;;;;4987898;28;20183;-76
2021/11/23 12:20:33;;;;;;;39.00;30.88;;;;;;;;;;4974510;28;20054;-76
2021/11/23 12:23:19;;;;;;;33.85;31.55;;;;;;;;;;4977049;28;20390;-76
2021/11/23 12:25:53;;;;;;;32.03;29.85;;;;;;;;;;4927454;28;20038;-77
2021/11/23 12:28:19;;;;;;;34.88;32.58;;;;;;;;;;4974080;28;20128;-76
2021/11/23 12:30:45;;;;;;;33.78;31.58;;;;;;;;;;4982493;28;20033;-75
2021/11/23 12:33:11;;;;;;;36.67;33.47;;;;;;;;;;4997122;28;20374;-76
2021/11/23 12:35:38;;;;;;;35.25;32.95;;;;;;;;;;4985625;28;20026;-75
2021/11/23 12:38:05;;;;;;;35.92;33.85;;;;;;;;;;4990775;28;20351;-76
2021/11/23 12:40:31;;;;;;;36.25;33.85;;;;;;;;;;4993520;28;20062;-77
2021/11/23 12:43:00;;;;;;;96.78;85.65;;;;;;;;;;4992001;28;20034;-76
2021/11/23 12:45:38;;;;;;;36.30;33.92;;;;;;;;;;4987580;28;20018;-76
2021/11/23 12:48:06;;;;;;;40.00;37.55;;;;;;;;;;4990310;28;20109;-77
2021/11/23 12:50:33;;;;;;;39.38;37.08;;;;;;;;;;4984571;28;20024;-76
2021/11/23 12:53:25;;;;;;;43.65;40.97;;;;;;;;;;4990278;28;20117;-76
2021/11/23 12:55:52;;;;;;;44.28;41.60;;;;;;;;;;4969179;28;20031;-76
2021/11/23 12:58:18;;;;;;;94.07;84.50;;;;;;;;;;4969971;28;20042;-76
2021/11/23 13:00:45;;;;;;;45.47;42.70;;;;;;;;;;4977972;28;20040;-77
2021/11/23 13:03:11;;;;;;;43.97;41.58;;;;;;;;;;4973429;28;20022;-77
2021/11/23 13:05:40;;;;;;;47.05;44.05;;;;;;;;;;4997145;28;20026;-77
2021/11/23 13:08:10;;;;;;;44.47;41.70;;;;;;;;;;4989844;28;20030;-77
2021/11/23 13:10:38;;;;;;;48.13;45.17;;;;;;;;;;4971862;28;20035;-77
2021/11/23 13:13:06;;;;;;;47.22;44.50;;;;;;;;;;4993056;28;20112;-78
2021/11/23 13:15:35;;;;;;;48.95;45.67;;;;;;;;;;4988647;28;20038;-78
2021/11/23 13:18:04;;;;;;;46.78;43.88;;;;;;;;;;4984847;28;20031;-77
2021/11/23 13:20:51;;;;;;;48.47;45.22;;;;;;;;;;4991468;28;20023;-78
2021/11/23 13:23:24;;;;;;;50.28;47.33;;;;;;;;;;4969902;28;20044;-77
2021/11/23 13:26:09;;;;;;;52.25;48.85;;;;;;;;;;4992861;28;20025;-77
2021/11/23 13:28:36;;;;;;;58.17;53.83;;;;;;;;;;4986846;28;20053;-77
2021/11/23 13:31:04;;;;;;;48.95;45.83;;;;;;;;;;4991899;28;20388;-78
2021/11/23 13:33:35;;;;;;;48.92;46.00;;;;;;;;;;4970275;28;20030;-78
2021/11/23 13:36:02;;;;;;;;;;;;;;;;;;4987096;28;20452;-78
2021/11/23 13:38:29;;;;;;;53.70;50.30;;;;;;;;;;4988352;28;20496;-77
2021/11/23 13:40:55;;;;;;;54.45;51.20;;;;;;;;;;4977878;28;20076;-77
2021/11/23 13:43:21;;;;;;;56.80;53.55;;;;;;;;;;5003714;28;20029;-78
2021/11/23 13:46:01;;;;;;;59.28;55.97;;;;;;;;;;4992231;28;20018;-77
2021/11/23 13:48:27;;;;;;;59.83;56.38;;;;;;;;;;4998474;28;20045;-77
2021/11/23 13:51:15;;;;;;;56.10;52.67;;;;;;;;;;4988193;28;20034;-78
2021/11/23 13:54:14;;;;;;;56.78;53.63;;;;;;;;;;4993614;28;20027;-78
2021/11/23 13:56:42;;;;;;;57.10;54.10;;;;;;;;;;4959271;28;20041;-78
2021/11/23 13:59:09;;;;;;;54.63;51.60;;;;;;;;;;5001053;28;20076;-77
2021/11/23 14:01:52;;;;;;;55.38;52.17;;;;;;;;;;4976426;28;20145;-78
2021/11/23 14:04:19;;;;;;;59.20;55.90;;;;;;;;;;4972920;28;20034;-77
2021/11/23 14:07:06;;;;;;;56.55;53.25;;;;;;;;;;4971253;28;20030;-78
2021/11/23 14:09:52;;;;;;;56.78;53.22;;;;;;;;;;4989141;28;20113;-78
2021/11/23 14:12:24;;;;;;;56.90;53.22;;;;;;;;;;4991771;28;20027;-78
2021/11/23 14:15:01;;;;;;;62.92;58.63;;;;;;;;;;4988808;28;20048;-77
2021/11/23 14:17:46;;;;;;;55.30;52.28;;;;;;;;;;4988008;28;20073;-77
2021/11/23 14:20:12;;;;;;;54.85;51.85;;;;;;;;;;4973791;28;20136;-78
2021/11/23 14:22:39;;;;;;;55.90;52.75;;;;;;;;;;4989992;28;20494;-78
2021/11/23 14:25:16;;;;;;;58.85;55.53;;;;;;;;;;4988731;28;20026;-78